createdAt,value
2018-11-29T00:01:03.739Z,95.97
2018-11-29T00:03:32.659Z,95.61
2018-11-29T00:06:08.476Z,96.56
2018-11-29T00:08:37.428Z,96.10
2018-11-29T00:14:01.361Z,96.17
2018-11-29T00:19:31.614Z,95.85
2018-11-29T00:22:14.613Z,96.30
2018-11-29T00:24:55.979Z,96.17
2018-11-29T00:27:24.875Z,95.86
2018-11-29T00:30:07.065Z,96.06
2018-11-29T00:35:36.650Z,96.26
2018-11-29T00:38:06.670Z,95.95
2018-11-29T00:40:47.005Z,95.82
2018-11-29T00:43:20.611Z,95.64
2018-11-29T00:45:49.551Z,96.08
2018-11-29T00:48:24.509Z,96.15
2018-11-29T00:51:12.861Z,96.28
2018-11-29T00:56:46.988Z,95.42
2018-11-29T00:59:38.396Z,95.39
2018-11-29T01:02:07.322Z,95.30
2018-11-29T01:04:58.829Z,95.31
2018-11-29T01:10:28.068Z,96.15
2018-11-29T01:13:09.100Z,95.40
2018-11-29T01:18:33.798Z,96.33
2018-11-29T01:21:21.273Z,95.74
2018-11-29T01:24:02.961Z,95.64
2018-11-29T01:26:44.626Z,96.17
2018-11-29T01:29:28.259Z,96.21
2018-11-29T01:31:57.161Z,95.61
2018-11-29T01:34:27.093Z,95.91
2018-11-29T01:36:56.156Z,95.69
2018-11-29T01:39:36.172Z,95.98
2018-11-29T01:42:06.155Z,95.53
2018-11-29T01:44:40.647Z,95.71
2018-11-29T01:50:07.234Z,96.25
2018-11-29T01:52:54.185Z,95.46
2018-11-29T01:55:35.923Z,95.54
2018-11-29T01:58:11.064Z,96.15
2018-11-29T02:00:40.982Z,95.43
2018-11-29T02:03:09.850Z,96.12
2018-11-29T02:05:38.738Z,95.56
2018-11-29T02:08:07.799Z,95.28
2018-11-29T02:10:45.989Z,95.25
2018-11-29T02:13:14.876Z,95.44
2018-11-29T02:15:43.766Z,96.02
2018-11-29T02:18:13.701Z,95.45
2018-11-29T02:20:42.564Z,96.13
2018-11-29T02:23:11.420Z,96.24
2018-11-29T02:25:40.268Z,95.95
2018-11-29T02:28:09.134Z,95.98
2018-11-29T02:30:38.141Z,95.69
2018-11-29T02:33:07.045Z,96.07
2018-11-29T02:35:35.992Z,95.34
2018-11-29T02:38:05.948Z,95.60
2018-11-29T02:40:36.840Z,96.03
2018-11-29T02:43:10.227Z,96.10
2018-11-29T02:45:39.131Z,95.83
2018-11-29T02:48:07.985Z,95.54
2018-11-29T02:50:36.897Z,95.81
2018-11-29T02:53:06.809Z,95.33
2018-11-29T02:55:39.589Z,96.31
2018-11-29T02:58:08.462Z,95.52
2018-11-29T03:00:44.392Z,96.05
2018-11-29T03:03:14.308Z,95.57
2018-11-29T03:05:43.226Z,95.40
2018-11-29T03:08:12.084Z,95.44
2018-11-29T03:10:40.971Z,96.26
2018-11-29T03:13:10.868Z,95.61
2018-11-29T03:15:39.803Z,95.69
2018-11-29T03:18:20.609Z,95.48
2018-11-29T03:20:51.564Z,95.30
2018-11-29T03:23:27.542Z,95.17
2018-11-29T03:25:56.561Z,95.92
2018-11-29T03:28:25.474Z,95.12
2018-11-29T03:30:54.401Z,95.01
2018-11-29T03:33:27.900Z,95.92
2018-11-29T03:35:56.802Z,95.16
2018-11-29T03:38:25.736Z,95.26
2018-11-29T03:40:54.723Z,95.68
2018-11-29T03:43:28.178Z,94.84
2018-11-29T03:46:01.166Z,95.31
2018-11-29T03:48:30.032Z,96.14
2018-11-29T03:51:15.475Z,95.20
2018-11-29T03:53:44.314Z,95.52
2018-11-29T03:56:25.911Z,95.17
2018-11-29T04:01:51.464Z,95.91
2018-11-29T04:04:20.347Z,94.96
2018-11-29T04:06:55.507Z,95.67
2018-11-29T04:09:26.427Z,95.58
2018-11-29T04:11:55.389Z,95.13
2018-11-29T04:14:45.178Z,95.21
2018-11-29T04:17:14.046Z,95.70
2018-11-29T04:19:42.947Z,95.37
2018-11-29T04:22:11.866Z,95.17
2018-11-29T04:24:40.700Z,95.09
2018-11-29T04:27:11.788Z,95.57
2018-11-29T04:29:40.670Z,95.73
2018-11-29T04:32:13.861Z,95.84
2018-11-29T04:34:44.883Z,95.91
2018-11-29T04:37:13.756Z,95.68
2018-11-29T04:39:55.397Z,95.65
2018-11-29T04:42:48.700Z,95.03
2018-11-29T04:45:21.567Z,94.81
2018-11-29T04:48:13.682Z,95.10
2018-11-29T04:50:47.475Z,94.88
2018-11-29T04:53:27.649Z,94.98
2018-11-29T04:55:57.559Z,95.28
2018-11-29T04:58:26.623Z,95.52
2018-11-29T05:00:55.650Z,95.46
2018-11-29T05:03:28.872Z,95.21
2018-11-29T05:05:57.816Z,95.05
2018-11-29T05:08:40.573Z,95.33
2018-11-29T05:11:11.478Z,95.37
2018-11-29T05:13:45.372Z,95.09
2018-11-29T05:16:20.045Z,95.69
2018-11-29T05:18:59.254Z,95.87
2018-11-29T05:21:28.203Z,95.99
2018-11-29T05:23:59.260Z,96.53
2018-11-29T05:26:28.435Z,96.81
2018-11-29T05:29:03.789Z,96.19
2018-11-29T05:31:35.831Z,96.89
2018-11-29T05:34:11.278Z,97.19
2018-11-29T05:36:42.241Z,98.56
2018-11-29T05:39:12.193Z,98.82
2018-11-29T05:41:44.702Z,98.85
2018-11-29T05:44:20.765Z,98.09
2018-11-29T05:47:02.894Z,98.80
2018-11-29T05:49:33.907Z,98.41
2018-11-29T05:52:06.576Z,99.34
2018-11-29T05:54:35.652Z,98.46
2018-11-29T05:57:04.560Z,99.21
2018-11-29T05:59:33.465Z,98.95
2018-11-29T06:02:04.378Z,98.70
2018-11-29T06:04:34.260Z,98.54
2018-11-29T06:07:21.738Z,99.51
2018-11-29T06:09:51.625Z,99.15
2018-11-29T06:12:22.592Z,99.51
2018-11-29T06:14:51.495Z,99.14
2018-11-29T06:17:26.162Z,99.61
2018-11-29T06:22:48.806Z,99.10
2018-11-29T06:25:21.641Z,98.94
2018-11-29T06:27:50.789Z,99.74
2018-11-29T06:33:25.603Z,99.58
2018-11-29T06:36:02.595Z,99.02
2018-11-29T06:38:31.716Z,98.84
2018-11-29T06:41:04.666Z,98.69
2018-11-29T06:43:33.598Z,98.49
2018-11-29T06:46:07.224Z,97.56
2018-11-29T06:51:37.990Z,97.69
2018-11-29T06:54:08.942Z,97.92
2018-11-29T06:56:43.372Z,97.53
2018-11-29T06:59:17.147Z,98.14
2018-11-29T07:02:02.724Z,97.80
2018-11-29T07:04:31.702Z,98.15
2018-11-29T07:07:02.686Z,97.73
2018-11-29T07:09:31.661Z,98.36
2018-11-29T07:12:04.067Z,98.03
2018-11-29T07:14:39.391Z,97.96
2018-11-29T07:20:03.674Z,97.35
2018-11-29T07:22:48.937Z,97.33
2018-11-29T07:25:31.557Z,97.04
2018-11-29T07:28:06.976Z,97.26
2018-11-29T07:30:46.721Z,98.06
2018-11-29T07:33:22.214Z,97.13
2018-11-29T07:35:52.164Z,97.14
2018-11-29T07:38:22.158Z,96.95
2018-11-29T07:41:00.962Z,96.54
2018-11-29T07:43:47.155Z,96.17
2018-11-29T07:46:17.296Z,97.15
2018-11-29T07:48:45.004Z,96.12
2018-11-29T07:51:21.252Z,96.30
2018-11-29T07:53:55.882Z,95.31
2018-11-29T07:56:31.699Z,96.20
2018-11-29T07:59:01.603Z,95.52
2018-11-29T08:01:30.592Z,95.01
2018-11-29T08:04:11.142Z,95.29
2018-11-29T08:06:40.437Z,95.59
2018-11-29T08:09:09.340Z,94.30
2018-11-29T08:11:39.260Z,94.26
2018-11-29T08:17:20.821Z,94.77
2018-11-29T08:20:09.928Z,93.42
2018-11-29T08:22:42.537Z,93.71
2018-11-29T08:25:17.758Z,93.70
2018-11-29T08:27:50.168Z,93.50
2018-11-29T08:30:26.314Z,93.79
2018-11-29T08:32:55.250Z,94.50
2018-11-29T08:35:28.468Z,92.94
2018-11-29T08:38:01.256Z,93.24
2018-11-29T08:40:30.279Z,93.01
2018-11-29T08:42:59.241Z,93.70
2018-11-29T08:45:31.741Z,93.01
2018-11-29T08:48:00.721Z,92.93
2018-11-29T08:50:46.879Z,92.76
2018-11-29T08:53:23.084Z,92.53
2018-11-29T08:58:49.043Z,91.58
2018-11-29T09:01:19.063Z,91.14
2018-11-29T09:03:54.980Z,91.32
2018-11-29T09:06:28.429Z,90.56
2018-11-29T09:08:58.306Z,90.92
2018-11-29T09:11:31.779Z,90.58
2018-11-29T09:14:17.472Z,89.99
2018-11-29T09:16:52.904Z,90.40
2018-11-29T09:22:33.496Z,90.04
2018-11-29T09:25:13.503Z,90.06
2018-11-29T09:27:58.911Z,90.10
2018-11-29T09:30:33.836Z,90.25
2018-11-29T09:33:21.390Z,89.62
2018-11-29T09:35:55.930Z,89.59
2018-11-29T09:38:31.348Z,89.01
2018-11-29T09:41:19.605Z,88.25
2018-11-29T09:46:48.820Z,88.60
2018-11-29T09:49:19.788Z,88.55
2018-11-29T09:52:00.719Z,89.28
2018-11-29T09:54:35.298Z,89.06
2018-11-29T09:57:15.893Z,89.27
2018-11-29T10:00:03.235Z,90.25
2018-11-29T10:02:32.139Z,90.61
2018-11-29T10:05:00.976Z,91.56
2018-11-29T10:07:29.844Z,91.00
2018-11-29T10:09:58.761Z,90.66
2018-11-29T10:12:27.664Z,90.62
2018-11-29T10:15:04.522Z,91.33
2018-11-29T10:17:33.433Z,90.89
2018-11-29T10:20:02.286Z,90.65
2018-11-29T10:22:31.191Z,90.58
2018-11-29T10:25:22.331Z,90.19
2018-11-29T10:27:59.448Z,90.56
2018-11-29T10:30:32.059Z,90.71
2018-11-29T10:33:02.974Z,91.01
2018-11-29T10:35:31.878Z,91.82
2018-11-29T10:38:00.930Z,92.88
2018-11-29T10:43:30.581Z,93.82
2018-11-29T10:45:59.499Z,94.06
2018-11-29T10:48:28.364Z,94.14
2018-11-29T10:50:57.230Z,94.42
2018-11-29T10:53:26.158Z,94.04
2018-11-29T10:55:55.061Z,94.32
2018-11-29T10:58:23.932Z,95.38
2018-11-29T11:00:58.161Z,94.33
2018-11-29T11:03:27.065Z,94.98
2018-11-29T11:05:56.061Z,94.32
2018-11-29T11:08:24.945Z,94.53
2018-11-29T11:10:53.804Z,94.50
2018-11-29T11:13:43.579Z,94.25
2018-11-29T11:16:24.858Z,95.12
2018-11-29T11:19:01.307Z,95.10
2018-11-29T11:21:36.799Z,95.86
2018-11-29T11:24:07.121Z,96.11
2018-11-29T11:26:37.012Z,96.02
2018-11-29T11:31:59.672Z,97.66
2018-11-29T11:34:44.775Z,98.68
2018-11-29T11:37:13.646Z,97.77
2018-11-29T11:39:48.492Z,97.88
2018-11-29T11:42:21.289Z,98.67
2018-11-29T11:44:50.240Z,99.53
2018-11-29T11:47:31.295Z,100.00
2018-11-29T11:50:01.189Z,100.00
2018-11-29T11:52:47.231Z,100.00
2018-11-29T11:55:32.801Z,99.97
2018-11-29T11:58:09.092Z,99.84
2018-11-29T12:00:39.421Z,100.00
2018-11-29T12:03:09.997Z,100.00
2018-11-29T12:06:01.758Z,100.00
2018-11-29T12:08:30.676Z,99.70
2018-11-29T12:11:03.353Z,100.00
2018-11-29T12:13:32.220Z,99.55
2018-11-29T12:16:07.522Z,100.00
2018-11-29T12:18:42.309Z,99.33
2018-11-29T12:21:25.458Z,99.35
2018-11-29T12:23:58.360Z,98.19
2018-11-29T12:26:31.966Z,97.53
2018-11-29T12:29:01.938Z,97.96
2018-11-29T12:31:48.651Z,98.08
2018-11-29T12:34:38.425Z,97.63
2018-11-29T12:37:08.382Z,97.17
2018-11-29T12:42:49.615Z,96.29
2018-11-29T12:48:13.178Z,97.76
2018-11-29T12:53:47.074Z,98.01
2018-11-29T12:56:17.108Z,97.20
2018-11-29T12:58:50.236Z,97.33
2018-11-29T13:01:19.138Z,97.15
2018-11-29T13:03:48.079Z,96.53
2018-11-29T13:06:16.984Z,97.52
2018-11-29T13:08:54.145Z,97.17
2018-11-29T13:11:23.098Z,98.29
2018-11-29T13:13:55.830Z,98.36
2018-11-29T13:16:24.738Z,98.50
2018-11-29T13:18:53.604Z,98.97
2018-11-29T13:21:22.505Z,98.94
2018-11-29T13:23:51.389Z,99.48
2018-11-29T13:26:20.291Z,96.94
2018-11-29T13:28:50.278Z,97.98
2018-11-29T13:31:19.139Z,98.11
2018-11-29T13:33:48.117Z,97.26
2018-11-29T13:36:16.925Z,97.48
2018-11-29T13:38:45.842Z,97.03
2018-11-29T13:41:14.820Z,96.58
2018-11-29T13:43:43.704Z,95.49
2018-11-29T13:46:12.566Z,94.90
2018-11-29T13:48:43.559Z,95.35
2018-11-29T13:51:12.442Z,95.60
2018-11-29T13:53:43.425Z,96.67
2018-11-29T13:56:25.971Z,95.88
2018-11-29T13:58:54.876Z,95.80
2018-11-29T14:01:23.756Z,95.55
2018-11-29T14:04:06.379Z,95.11
2018-11-29T14:06:47.576Z,93.30
2018-11-29T14:09:26.447Z,94.29
2018-11-29T14:11:55.355Z,93.22
2018-11-29T14:14:28.571Z,91.79
2018-11-29T14:17:20.390Z,91.70
2018-11-29T14:19:49.293Z,90.20
2018-11-29T14:22:24.422Z,89.79
2018-11-29T14:24:59.798Z,90.26
2018-11-29T14:27:27.742Z,89.33
2018-11-29T14:29:56.749Z,89.33
2018-11-29T14:32:25.704Z,87.19
2018-11-29T14:35:07.004Z,87.58
2018-11-29T14:37:35.975Z,86.41
2018-11-29T14:40:07.761Z,86.33
2018-11-29T14:42:38.824Z,85.53
2018-11-29T14:45:21.571Z,84.59
2018-11-29T14:48:09.231Z,85.37
2018-11-29T14:50:43.798Z,85.39
2018-11-29T14:53:19.260Z,85.14
2018-11-29T14:55:51.868Z,85.58
2018-11-29T14:58:27.798Z,86.59
2018-11-29T15:01:02.527Z,85.38
2018-11-29T15:03:36.705Z,85.38
2018-11-29T15:06:10.049Z,85.62
2018-11-29T15:08:45.879Z,86.45
2018-11-29T15:11:21.642Z,85.87
2018-11-29T15:14:02.355Z,86.45
2018-11-29T15:16:32.280Z,85.56
2018-11-29T15:19:09.835Z,86.03
2018-11-29T15:21:42.990Z,86.37
2018-11-29T15:24:12.994Z,86.76
2018-11-29T15:26:50.290Z,87.58
2018-11-29T15:29:32.688Z,87.15
2018-11-29T15:32:02.714Z,86.34
2018-11-29T15:34:32.594Z,86.31
2018-11-29T15:37:07.226Z,86.86
2018-11-29T15:39:57.316Z,86.14
2018-11-29T15:42:37.249Z,86.28
2018-11-29T15:45:11.524Z,84.82
2018-11-29T15:47:47.476Z,85.88
2018-11-29T15:50:26.397Z,86.07
2018-11-29T15:53:03.108Z,86.06
2018-11-29T15:55:45.308Z,86.28
2018-11-29T15:58:14.200Z,85.74
2018-11-29T16:00:49.028Z,85.75
2018-11-29T16:03:21.020Z,84.93
2018-11-29T16:05:53.945Z,85.53
2018-11-29T16:08:26.872Z,85.56
2018-11-29T16:11:06.057Z,84.78
2018-11-29T16:13:35.034Z,86.10
2018-11-29T16:16:03.997Z,86.35
2018-11-29T16:18:32.992Z,85.48
2018-11-29T16:24:05.288Z,84.06
2018-11-29T16:26:41.682Z,84.73
2018-11-29T16:29:24.894Z,83.58
2018-11-29T16:31:53.802Z,83.43
2018-11-29T16:34:26.826Z,83.47
2018-11-29T16:37:02.816Z,83.28
2018-11-29T16:39:36.182Z,82.85
2018-11-29T16:45:02.222Z,82.27
2018-11-29T16:47:37.017Z,82.23
2018-11-29T16:50:13.040Z,82.76
2018-11-29T16:52:54.306Z,82.00
2018-11-29T16:55:29.115Z,82.42
2018-11-29T16:58:00.854Z,81.67
2018-11-29T17:00:31.863Z,82.05
2018-11-29T17:03:06.552Z,81.77
2018-11-29T17:05:39.214Z,82.20
2018-11-29T17:08:10.166Z,81.65
2018-11-29T17:10:50.194Z,82.19
2018-11-29T17:13:20.274Z,81.75
2018-11-29T17:15:53.429Z,81.95
2018-11-29T17:18:35.885Z,81.60
2018-11-29T17:21:10.723Z,81.15
2018-11-29T17:23:43.523Z,81.13
2018-11-29T17:26:25.156Z,80.68
2018-11-29T17:28:57.959Z,81.13
2018-11-29T17:34:20.427Z,80.57
2018-11-29T17:36:55.338Z,80.91
2018-11-29T17:39:24.230Z,81.92
2018-11-29T17:41:56.557Z,80.78
2018-11-29T17:44:35.649Z,81.49
2018-11-29T17:47:05.934Z,80.67
2018-11-29T17:49:34.866Z,80.92
2018-11-29T17:52:03.760Z,80.68
2018-11-29T17:54:34.676Z,80.30
2018-11-29T17:57:09.314Z,80.17
2018-11-29T17:59:38.217Z,80.06
2018-11-29T18:02:07.127Z,81.05
2018-11-29T18:04:42.272Z,80.88
2018-11-29T18:07:11.154Z,80.08
2018-11-29T18:09:45.790Z,80.81
2018-11-29T18:12:16.165Z,80.97
2018-11-29T18:14:51.383Z,81.03
2018-11-29T18:17:22.255Z,80.14
2018-11-29T18:20:04.415Z,80.71
2018-11-29T18:22:33.183Z,80.14
2018-11-29T18:25:03.164Z,79.84
2018-11-29T18:27:32.048Z,80.56
2018-11-29T18:30:09.286Z,80.04
2018-11-29T18:32:38.242Z,80.21
2018-11-29T18:35:23.799Z,80.02
2018-11-29T18:37:53.730Z,79.39
2018-11-29T18:40:23.654Z,79.16
2018-11-29T18:42:56.553Z,79.20
2018-11-29T18:45:35.902Z,79.94
2018-11-29T18:48:10.862Z,80.29
2018-11-29T18:50:46.739Z,79.33
2018-11-29T18:53:23.472Z,79.09
2018-11-29T18:55:54.364Z,79.39
2018-11-29T19:01:17.617Z,78.80
2018-11-29T19:04:04.767Z,79.61
2018-11-29T19:06:33.813Z,79.36
2018-11-29T19:09:08.529Z,79.32
2018-11-29T19:11:38.936Z,79.34
2018-11-29T19:17:07.456Z,78.79
2018-11-29T19:19:37.080Z,79.40
2018-11-29T19:22:06.834Z,79.08
2018-11-29T19:24:39.724Z,79.06
2018-11-29T19:27:33.012Z,78.87
2018-11-29T19:30:04.321Z,78.85
2018-11-29T19:32:36.916Z,79.15
2018-11-29T19:35:17.720Z,78.69
2018-11-29T19:38:05.409Z,78.80
2018-11-29T19:40:39.371Z,79.38
2018-11-29T19:43:31.032Z,78.87
2018-11-29T19:46:00.971Z,78.78
2018-11-29T19:48:48.664Z,78.07
2018-11-29T19:51:19.723Z,77.76
2018-11-29T19:54:00.903Z,76.50
2018-11-29T19:56:31.858Z,77.77
2018-11-29T19:59:12.272Z,77.98
2018-11-29T20:01:45.654Z,77.24
2018-11-29T20:04:27.180Z,78.13
2018-11-29T20:06:56.139Z,78.23
2018-11-29T20:09:47.182Z,78.03
2018-11-29T20:12:23.530Z,78.70
2018-11-29T20:17:55.890Z,78.26
2018-11-29T20:20:26.814Z,78.24
2018-11-29T20:23:08.707Z,78.33
2018-11-29T20:25:44.697Z,78.42
2018-11-29T20:28:15.671Z,78.28
2018-11-29T20:30:46.685Z,77.73
2018-11-29T20:33:15.642Z,78.29
2018-11-29T20:35:44.690Z,78.17
2018-11-29T20:38:24.775Z,78.58
2018-11-29T20:41:05.966Z,78.08
2018-11-29T20:43:52.661Z,78.72
2018-11-29T20:46:34.436Z,78.44
2018-11-29T20:52:00.790Z,78.00
2018-11-29T20:54:35.977Z,78.49
2018-11-29T20:57:08.201Z,78.98
2018-11-29T20:59:43.362Z,78.36
2018-11-29T21:02:14.306Z,78.88
2018-11-29T21:04:47.399Z,79.04
2018-11-29T21:07:21.320Z,78.30
2018-11-29T21:09:51.498Z,78.27
2018-11-29T21:12:22.474Z,79.01
2018-11-29T21:17:47.118Z,78.75
2018-11-29T21:20:29.573Z,79.28
2018-11-29T21:23:02.449Z,79.10
2018-11-29T21:25:37.608Z,78.80
2018-11-29T21:28:11.526Z,79.03
2018-11-29T21:30:46.712Z,78.93
2018-11-29T21:33:16.435Z,79.58
2018-11-29T21:38:46.014Z,79.32
2018-11-29T21:44:28.743Z,78.89
2018-11-29T21:47:07.757Z,79.21
2018-11-29T21:49:36.692Z,79.44
2018-11-29T21:52:10.913Z,79.33
2018-11-29T21:55:02.470Z,79.03
2018-11-29T22:00:06.065Z,79.45
2018-11-29T22:02:41.954Z,78.91
2018-11-29T22:05:29.377Z,79.35
2018-11-29T22:08:03.092Z,79.09
2018-11-29T22:10:32.605Z,79.03
2018-11-29T22:13:06.459Z,79.18
2018-11-29T22:15:39.421Z,78.83
2018-11-29T22:18:27.025Z,78.92
2018-11-29T22:21:16.948Z,79.13
2018-11-29T22:23:50.518Z,79.55
2018-11-29T22:29:21.555Z,79.96
2018-11-29T22:31:50.838Z,79.91
2018-11-29T22:34:19.796Z,79.43
2018-11-29T22:37:07.877Z,79.97
2018-11-29T22:42:41.131Z,79.39
2018-11-29T22:45:11.046Z,79.97
2018-11-29T22:47:43.709Z,80.46
2018-11-29T22:50:25.598Z,80.48
2018-11-29T22:53:04.262Z,79.62
2018-11-29T22:55:41.797Z,79.56
2018-11-29T22:58:12.734Z,80.48
2018-11-29T23:00:47.023Z,80.21
2018-11-29T23:03:16.020Z,80.52
2018-11-29T23:05:54.705Z,80.10
2018-11-29T23:08:45.989Z,79.98
2018-11-29T23:11:25.565Z,80.07
2018-11-29T23:13:57.817Z,80.72
2018-11-29T23:16:44.551Z,80.90
2018-11-29T23:19:36.230Z,80.27
2018-11-29T23:22:09.956Z,81.28
2018-11-29T23:24:38.971Z,79.97
2018-11-29T23:27:08.010Z,80.45
2018-11-29T23:29:44.726Z,81.31
2018-11-29T23:32:23.750Z,80.84
2018-11-29T23:34:52.922Z,80.83
2018-11-29T23:37:21.789Z,81.57
2018-11-29T23:42:54.353Z,81.56
2018-11-29T23:45:25.280Z,81.55
2018-11-29T23:47:56.248Z,81.63
2018-11-29T23:50:25.269Z,80.92
2018-11-29T23:52:55.245Z,81.67
2018-11-29T23:55:30.363Z,81.08
2018-11-29T23:57:59.305Z,80.79
